Time;durP1;ratioP1;P1;durP2;ratioP2;P2;SDS_P1;SDS_P2;PMS_P1;PMS_P2;Temp;Humidity;BMP_temperature;BMP_pressure;BME280_temperature;BME280_humidity;BME280_pressure;Samples;Min_cycle;Max_cycle;Signal;HPM_P1;HPM_P2
2023/05/15 00:00:05;;;;;;;6.30;4.20;;;;;;;;;;5052079;28;20033;-72
2023/05/15 00:02:38;;;;;;;7.40;4.40;;;;;;;;;;5051870;28;20103;-72
2023/05/15 00:05:06;;;;;;;6.80;4.78;;;;;;;;;;5051348;28;20072;-71
2023/05/15 00:07:32;;;;;;;8.73;4.53;;;;;;;;;;5049272;28;20028;-72
2023/05/15 00:09:58;;;;;;;6.85;3.92;;;;;;;;;;5049439;28;20033;-72
2023/05/15 00:12:24;;;;;;;7.70;4.88;;;;;;;;;;5051310;28;20036;-72
2023/05/15 00:14:49;;;;;;;8.48;4.68;;;;;;;;;;5051222;28;20141;-72
2023/05/15 00:17:15;;;;;;;7.10;4.50;;;;;;;;;;5051186;28;20079;-72
2023/05/15 00:19:41;;;;;;;7.13;4.63;;;;;;;;;;5041921;28;20033;-72
2023/05/15 00:22:07;;;;;;;12.85;4.78;;;;;;;;;;5051123;28;20060;-70
2023/05/15 00:24:33;;;;;;;8.00;4.82;;;;;;;;;;5049242;28;20044;-71
2023/05/15 00:26:59;;;;;;;6.03;4.28;;;;;;;;;;5051568;28;20020;-71
2023/05/15 00:29:25;;;;;;;5.07;4.10;;;;;;;;;;5049341;28;20071;-72
2023/05/15 00:31:51;;;;;;;9.15;5.28;;;;;;;;;;5051495;28;20052;-71
2023/05/15 00:34:17;;;;;;;9.60;4.70;;;;;;;;;;5046432;28;20029;-72
2023/05/15 00:36:43;;;;;;;6.57;4.80;;;;;;;;;;5047734;28;20112;-72
2023/05/15 00:39:10;;;;;;;8.57;5.78;;;;;;;;;;5045587;28;20032;-71
2023/05/15 00:41:36;;;;;;;10.75;5.60;;;;;;;;;;5047288;28;20020;-71
2023/05/15 00:44:05;;;;;;;11.55;5.90;;;;;;;;;;5046724;28;20541;-71
2023/05/15 00:46:31;;;;;;;7.57;5.57;;;;;;;;;;5043143;28;20029;-71
2023/05/15 00:48:58;;;;;;;9.68;5.93;;;;;;;;;;5045244;28;20041;-71
2023/05/15 00:51:26;;;;;;;11.77;6.15;;;;;;;;;;5042965;28;20048;-71
2023/05/15 00:53:53;;;;;;;12.80;6.13;;;;;;;;;;5048597;28;20483;-71
2023/05/15 00:56:20;;;;;;;11.52;6.53;;;;;;;;;;5071979;28;20021;-71
2023/05/15 00:58:47;;;;;;;11.38;6.22;;;;;;;;;;5040529;28;20060;-71
2023/05/15 01:01:15;;;;;;;12.80;7.07;;;;;;;;;;5041408;28;20167;-71
2023/05/15 01:03:41;;;;;;;9.75;6.90;;;;;;;;;;5058444;28;20033;-71
2023/05/15 01:06:06;;;;;;;13.00;7.07;;;;;;;;;;5044872;28;20028;-71
2023/05/15 01:08:45;;;;;;;13.48;6.93;;;;;;;;;;5046441;28;20033;-71
2023/05/15 01:11:12;;;;;;;8.98;6.90;;;;;;;;;;5041199;28;20371;-70
2023/05/15 01:13:38;;;;;;;10.45;6.85;;;;;;;;;;5043254;28;20028;-71
2023/05/15 01:16:05;;;;;;;8.43;6.53;;;;;;;;;;5044515;28;20114;-71
2023/05/15 01:18:31;;;;;;;12.27;7.45;;;;;;;;;;5046647;28;20082;-71
2023/05/15 01:21:09;;;;;;;9.50;7.60;;;;;;;;;;5046661;28;20079;-71
2023/05/15 01:23:44;;;;;;;13.73;8.00;;;;;;;;;;5048827;28;20025;-71
2023/05/15 01:26:18;;;;;;;11.55;7.60;;;;;;;;;;5042429;28;20129;-71
2023/05/15 01:29:08;;;;;;;10.80;8.55;;;;;;;;;;5040684;28;20029;-71
2023/05/15 01:31:36;;;;;;;14.20;8.43;;;;;;;;;;5062789;28;20041;-71
2023/05/15 01:34:07;;;;;;;16.42;8.90;;;;;;;;;;5027959;28;20029;-71
2023/05/15 01:36:41;;;;;;;13.05;8.57;;;;;;;;;;5046047;28;20045;-71
2023/05/15 01:39:10;;;;;;;10.98;7.90;;;;;;;;;;5056704;28;20025;-71
2023/05/15 01:42:10;;;;;;;11.07;7.53;;;;;;;;;;5048312;28;20415;-71
2023/05/15 01:44:41;;;;;;;11.55;8.63;;;;;;;;;;5048027;28;20102;-71
2023/05/15 01:47:34;;;;;;;14.23;9.25;;;;;;;;;;5045717;28;20037;-72
2023/05/15 01:50:03;;;;;;;15.35;9.75;;;;;;;;;;5057387;28;20053;-70
2023/05/15 01:52:33;;;;;;;14.48;8.93;;;;;;;;;;5049187;28;20053;-71
2023/05/15 01:55:01;;;;;;;14.02;9.70;;;;;;;;;;5047080;28;20394;-71
2023/05/15 01:57:29;;;;;;;12.85;8.05;;;;;;;;;;5054084;28;20441;-71
2023/05/15 01:59:57;;;;;;;10.60;8.00;;;;;;;;;;5053640;28;20064;-71
2023/05/15 02:02:25;;;;;;;10.55;7.50;;;;;;;;;;5049579;28;20476;-70
2023/05/15 02:04:54;;;;;;;11.23;7.22;;;;;;;;;;5053571;28;20040;-70
2023/05/15 02:07:20;;;;;;;12.10;8.45;;;;;;;;;;5047428;28;20021;-72
2023/05/15 02:09:47;;;;;;;10.10;7.20;;;;;;;;;;5052645;28;20098;-70
2023/05/15 02:12:14;;;;;;;19.30;8.23;;;;;;;;;;5044573;28;20475;-72
2023/05/15 02:14:40;;;;;;;15.20;7.53;;;;;;;;;;5044373;28;20123;-71
2023/05/15 02:17:06;;;;;;;12.95;8.20;;;;;;;;;;5054016;28;20533;-71
2023/05/15 02:19:32;;;;;;;10.05;7.78;;;;;;;;;;5051586;28;20041;-72
2023/05/15 02:21:58;;;;;;;13.57;6.97;;;;;;;;;;5049237;28;20025;-70
2023/05/15 02:24:23;;;;;;;11.68;7.93;;;;;;;;;;5053490;28;20029;-70
2023/05/15 02:27:03;;;;;;;11.02;7.90;;;;;;;;;;5043924;28;20025;-71
2023/05/15 02:30:11;;;;;;;11.35;7.80;;;;;;;;;;5053238;28;20059;-71
2023/05/15 02:32:58;;;;;;;13.32;7.70;;;;;;;;;;5046773;28;20045;-70
2023/05/15 02:35:30;;;;;;;14.77;8.60;;;;;;;;;;5037368;28;20038;-72
2023/05/15 02:38:01;;;;;;;16.52;9.35;;;;;;;;;;5045617;28;20387;-72
2023/05/15 02:40:29;;;;;;;12.82;8.75;;;;;;;;;;5052803;28;20475;-70
2023/05/15 02:42:56;;;;;;;17.77;9.75;;;;;;;;;;5045099;28;20280;-70
2023/05/15 02:45:23;;;;;;;17.42;9.90;;;;;;;;;;5043734;28;20060;-70
2023/05/15 02:47:50;;;;;;;21.27;10.50;;;;;;;;;;5051840;28;20040;-72
2023/05/15 02:50:17;;;;;;;18.38;10.30;;;;;;;;;;5053269;28;20037;-71
2023/05/15 02:52:43;;;;;;;14.32;9.48;;;;;;;;;;5068307;28;20021;-70
2023/05/15 02:55:09;;;;;;;10.93;9.27;;;;;;;;;;5068068;28;20040;-71
2023/05/15 02:57:35;;;;;;;23.25;9.18;;;;;;;;;;5048591;28;20028;-70
2023/05/15 03:00:01;;;;;;;15.48;9.75;;;;;;;;;;5052753;28;20040;-71
2023/05/15 03:02:27;;;;;;;14.98;8.10;;;;;;;;;;5053132;28;20295;-70
2023/05/15 03:04:52;;;;;;;19.85;9.77;;;;;;;;;;5047509;28;20041;-72
2023/05/15 03:07:18;;;;;;;16.02;10.05;;;;;;;;;;5050697;28;20049;-70
2023/05/15 03:09:44;;;;;;;15.63;10.73;;;;;;;;;;5052134;28;20505;-70
2023/05/15 03:12:09;;;;;;;16.55;9.55;;;;;;;;;;5037194;28;20023;-70
2023/05/15 03:14:35;;;;;;;11.43;8.77;;;;;;;;;;5048777;28;20044;-70
2023/05/15 03:17:01;;;;;;;14.63;8.57;;;;;;;;;;5051027;28;20028;-69
2023/05/15 03:19:27;;;;;;;17.73;9.77;;;;;;;;;;5052022;28;20040;-70
2023/05/15 03:21:53;;;;;;;12.55;9.32;;;;;;;;;;5052705;28;20016;-70
2023/05/15 03:24:20;;;;;;;13.57;9.23;;;;;;;;;;5051189;28;20115;-70
2023/05/15 03:26:45;;;;;;;17.42;10.40;;;;;;;;;;5049739;28;20029;-71
2023/05/15 03:29:12;;;;;;;23.45;11.32;;;;;;;;;;5046848;28;20044;-71
2023/05/15 03:31:37;;;;;;;24.63;11.80;;;;;;;;;;5053380;28;20028;-70
2023/05/15 03:34:03;;;;;;;14.65;9.43;;;;;;;;;;5045891;28;20031;-70
2023/05/15 03:36:29;;;;;;;19.58;10.55;;;;;;;;;;5042182;28;20029;-72
2023/05/15 03:38:55;;;;;;;19.45;11.23;;;;;;;;;;5039929;28;20103;-71
2023/05/15 03:41:21;;;;;;;19.15;10.93;;;;;;;;;;5050158;28;20025;-71
2023/05/15 03:43:46;;;;;;;23.83;11.23;;;;;;;;;;5058585;28;20463;-71
2023/05/15 03:46:17;;;;;;;21.27;10.70;;;;;;;;;;5046893;28;20483;-71
2023/05/15 03:48:43;;;;;;;16.58;8.88;;;;;;;;;;5041561;28;20498;-71
2023/05/15 03:51:09;;;;;;;17.83;9.27;;;;;;;;;;5030366;28;20025;-71
2023/05/15 03:53:35;;;;;;;21.42;10.25;;;;;;;;;;5048448;28;20402;-71
2023/05/15 03:56:00;;;;;;;15.93;9.55;;;;;;;;;;5050459;28;20021;-71
2023/05/15 03:58:26;;;;;;;11.75;8.38;;;;;;;;;;5047980;28;20216;-70
2023/05/15 04:00:52;;;;;;;11.25;7.60;;;;;;;;;;5052266;28;20032;-70
2023/05/15 04:03:18;;;;;;;12.18;8.10;;;;;;;;;;5051236;28;20029;-69
2023/05/15 04:05:48;;;;;;;11.52;7.03;;;;;;;;;;5048792;28;20052;-70
2023/05/15 04:08:14;;;;;;;11.68;6.95;;;;;;;;;;5058352;28;20135;-70
2023/05/15 04:10:40;;;;;;;9.70;7.03;;;;;;;;;;5049588;28;20502;-70
2023/05/15 04:13:06;;;;;;;10.43;7.05;;;;;;;;;;5052393;28;20115;-70
2023/05/15 04:15:31;;;;;;;11.23;7.13;;;;;;;;;;5050708;28;20421;-72
2023/05/15 04:17:57;;;;;;;9.60;6.55;;;;;;;;;;5056561;28;20037;-72
2023/05/15 04:20:24;;;;;;;11.68;6.47;;;;;;;;;;5046344;28;20112;-72
2023/05/15 04:22:50;;;;;;;17.48;8.20;;;;;;;;;;5051247;28;20086;-72
2023/05/15 04:25:16;;;;;;;12.85;6.80;;;;;;;;;;5049392;28;20013;-72
2023/05/15 04:27:43;;;;;;;11.52;5.95;;;;;;;;;;5044530;28;20132;-72
2023/05/15 04:30:10;;;;;;;11.25;6.18;;;;;;;;;;5051418;28;20466;-72
2023/05/15 04:32:37;;;;;;;14.40;6.28;;;;;;;;;;5050849;28;20036;-73
2023/05/15 04:35:10;;;;;;;15.95;7.13;;;;;;;;;;5058892;28;20021;-73
2023/05/15 04:37:37;;;;;;;21.38;7.70;;;;;;;;;;5050094;28;20044;-72
2023/05/15 04:40:05;;;;;;;14.95;6.32;;;;;;;;;;5049929;28;20478;-72
2023/05/15 04:42:31;;;;;;;8.40;4.80;;;;;;;;;;5046032;28;20025;-72
2023/05/15 04:44:57;;;;;;;9.02;4.68;;;;;;;;;;5058890;28;20024;-72
2023/05/15 04:47:22;;;;;;;8.65;5.13;;;;;;;;;;5044056;28;20033;-72
2023/05/15 04:49:49;;;;;;;11.63;5.40;;;;;;;;;;5049329;28;20028;-72
2023/05/15 04:52:15;;;;;;;12.02;5.40;;;;;;;;;;5045510;28;20033;-73
2023/05/15 04:54:41;;;;;;;6.32;4.90;;;;;;;;;;5050546;28;20039;-72
2023/05/15 04:57:07;;;;;;;9.43;4.63;;;;;;;;;;5051176;28;20021;-72
2023/05/15 04:59:34;;;;;;;6.82;4.88;;;;;;;;;;5050516;28;20134;-73
2023/05/15 05:02:01;;;;;;;8.35;5.35;;;;;;;;;;5050869;28;20037;-72
2023/05/15 05:04:27;;;;;;;8.98;5.22;;;;;;;;;;5050770;28;20108;-72
2023/05/15 05:06:53;;;;;;;8.65;4.90;;;;;;;;;;5050893;28;20455;-73
2023/05/15 05:09:19;;;;;;;8.90;5.07;;;;;;;;;;5050748;28;20390;-73
2023/05/15 05:11:46;;;;;;;9.07;4.75;;;;;;;;;;5050916;28;20040;-72
2023/05/15 05:14:13;;;;;;;11.25;4.85;;;;;;;;;;5050383;28;20104;-73
2023/05/15 05:16:40;;;;;;;10.93;5.63;;;;;;;;;;5050411;28;20068;-73
2023/05/15 05:19:06;;;;;;;16.02;8.50;;;;;;;;;;5050537;28;20032;-73
2023/05/15 05:21:32;;;;;;;11.55;8.57;;;;;;;;;;5051027;28;20041;-73
2023/05/15 05:23:58;;;;;;;18.90;9.40;;;;;;;;;;5049012;28;20100;-72
2023/05/15 05:26:25;;;;;;;18.38;8.10;;;;;;;;;;5051060;28;20485;-73
2023/05/15 05:28:51;;;;;;;14.98;8.60;;;;;;;;;;5048037;28;20064;-73
2023/05/15 05:31:17;;;;;;;13.40;8.02;;;;;;;;;;5045492;28;20079;-74
2023/05/15 05:33:43;;;;;;;15.52;7.65;;;;;;;;;;5038513;28;20442;-72
2023/05/15 05:36:09;;;;;;;12.15;7.63;;;;;;;;;;5050569;28;20418;-72
2023/05/15 05:38:35;;;;;;;10.00;7.55;;;;;;;;;;5050369;28;20028;-71
2023/05/15 05:41:01;;;;;;;10.40;6.53;;;;;;;;;;5050670;28;20451;-71
2023/05/15 05:43:27;;;;;;;8.45;6.55;;;;;;;;;;5050475;28;20096;-73
2023/05/15 05:45:53;;;;;;;15.05;7.93;;;;;;;;;;5050371;28;20398;-72
2023/05/15 05:48:19;;;;;;;11.38;8.18;;;;;;;;;;5042220;28;20025;-71
2023/05/15 05:50:45;;;;;;;18.75;8.20;;;;;;;;;;5050551;28;20033;-71
2023/05/15 05:53:10;;;;;;;15.65;7.47;;;;;;;;;;5050088;28;20552;-74
2023/05/15 05:55:36;;;;;;;13.45;7.50;;;;;;;;;;5050411;28;20120;-72
2023/05/15 05:58:03;;;;;;;11.77;7.25;;;;;;;;;;5042695;28;20021;-72
2023/05/15 06:00:29;;;;;;;16.83;8.30;;;;;;;;;;5050527;28;20037;-72
2023/05/15 06:02:58;;;;;;;11.75;8.65;;;;;;;;;;5050655;28;20457;-72
2023/05/15 06:05:27;;;;;;;15.90;9.35;;;;;;;;;;5050820;28;20029;-74
2023/05/15 06:07:53;;;;;;;25.65;10.38;;;;;;;;;;5057171;28;20111;-72
2023/05/15 06:10:20;;;;;;;17.40;9.73;;;;;;;;;;5048776;28;20056;-71
2023/05/15 06:12:47;;;;;;;18.85;10.23;;;;;;;;;;5050762;28;20021;-72
2023/05/15 06:15:14;;;;;;;17.55;9.30;;;;;;;;;;5067004;28;20056;-72
2023/05/15 06:17:40;;;;;;;14.55;8.98;;;;;;;;;;5048886;28;20047;-72
2023/05/15 06:20:07;;;;;;;13.43;9.52;;;;;;;;;;5050170;28;20104;-73
2023/05/15 06:22:33;;;;;;;16.98;8.98;;;;;;;;;;5049240;28;20482;-74
2023/05/15 06:25:00;;;;;;;14.95;9.07;;;;;;;;;;5045764;28;20120;-73
2023/05/15 06:27:26;;;;;;;14.07;8.93;;;;;;;;;;5046743;28;20055;-74
2023/05/15 06:29:52;;;;;;;12.57;7.95;;;;;;;;;;5049807;28;20037;-72
2023/05/15 06:32:17;;;;;;;19.52;8.73;;;;;;;;;;5046797;28;20359;-73
2023/05/15 06:34:43;;;;;;;12.60;7.53;;;;;;;;;;5051865;28;20021;-74
2023/05/15 06:37:10;;;;;;;16.35;9.05;;;;;;;;;;5053582;28;20485;-74
2023/05/15 06:39:36;;;;;;;15.90;8.18;;;;;;;;;;5053879;28;20040;-73
2023/05/15 06:42:01;;;;;;;13.65;7.75;;;;;;;;;;5053766;28;20355;-75
2023/05/15 06:44:30;;;;;;;12.18;6.50;;;;;;;;;;5059267;28;20028;-75
2023/05/15 06:46:55;;;;;;;15.75;6.68;;;;;;;;;;5046045;28;20101;-73
2023/05/15 06:49:21;;;;;;;11.68;7.55;;;;;;;;;;5044603;28;20029;-75
2023/05/15 06:51:47;;;;;;;11.63;6.57;;;;;;;;;;5067200;28;20447;-73
2023/05/15 06:54:13;;;;;;;12.15;6.97;;;;;;;;;;5046768;28;20039;-73
2023/05/15 06:56:39;;;;;;;14.93;6.95;;;;;;;;;;5046763;28;20057;-73
2023/05/15 06:59:04;;;;;;;9.55;6.80;;;;;;;;;;5046557;28;20032;-73
2023/05/15 07:01:31;;;;;;;13.48;7.05;;;;;;;;;;5045504;28;20069;-74
2023/05/15 07:03:57;;;;;;;11.00;6.65;;;;;;;;;;5042733;28;20047;-73
2023/05/15 07:06:24;;;;;;;12.35;7.18;;;;;;;;;;5046917;28;20446;-72
2023/05/15 07:08:51;;;;;;;15.90;7.07;;;;;;;;;;5050215;28;20052;-72
2023/05/15 07:11:17;;;;;;;12.57;7.40;;;;;;;;;;5052293;28;20162;-74
2023/05/15 07:13:43;;;;;;;9.25;6.13;;;;;;;;;;5050884;28;20041;-76
2023/05/15 07:16:08;;;;;;;8.85;6.63;;;;;;;;;;5052369;28;20021;-74
2023/05/15 07:18:34;;;;;;;16.15;6.60;;;;;;;;;;5051803;28;20067;-74
2023/05/15 07:21:00;;;;;;;10.85;6.22;;;;;;;;;;5067618;28;20028;-73
2023/05/15 07:23:26;;;;;;;9.20;5.63;;;;;;;;;;5052515;28;20028;-73
2023/05/15 07:25:54;;;;;;;10.25;5.65;;;;;;;;;;5052768;28;20244;-75
2023/05/15 07:28:20;;;;;;;7.45;4.85;;;;;;;;;;5052354;28;20032;-74
2023/05/15 07:30:46;;;;;;;6.53;4.15;;;;;;;;;;5052284;28;20372;-75
2023/05/15 07:33:11;;;;;;;8.65;4.28;;;;;;;;;;5052704;28;20453;-76
2023/05/15 07:35:37;;;;;;;7.85;4.10;;;;;;;;;;5035671;28;20021;-74
2023/05/15 07:38:03;;;;;;;7.60;4.70;;;;;;;;;;5051478;28;20036;-74
2023/05/15 07:40:29;;;;;;;9.70;4.50;;;;;;;;;;5052352;28;20028;-73
2023/05/15 07:42:54;;;;;;;9.27;4.10;;;;;;;;;;5052893;28;20059;-73
2023/05/15 07:45:20;;;;;;;11.07;4.78;;;;;;;;;;5053042;28;20261;-74
2023/05/15 07:47:48;;;;;;;9.10;4.22;;;;;;;;;;5052464;28;20033;-74
2023/05/15 07:50:15;;;;;;;9.27;4.25;;;;;;;;;;5052475;28;20021;-74
2023/05/15 07:52:41;;;;;;;5.88;3.75;;;;;;;;;;5052395;28;20060;-76
2023/05/15 07:55:08;;;;;;;6.97;3.53;;;;;;;;;;5052209;28;20107;-74
2023/05/15 07:57:34;;;;;;;7.70;3.90;;;;;;;;;;5052532;28;20035;-73
2023/05/15 08:00:05;;;;;;;6.47;3.65;;;;;;;;;;5052120;28;20021;-74
2023/05/15 08:02:52;;;;;;;11.02;5.07;;;;;;;;;;5029753;28;20183;-75
2023/05/15 08:05:18;;;;;;;8.07;3.63;;;;;;;;;;5029646;28;20076;-76
2023/05/15 08:07:44;;;;;;;6.97;3.90;;;;;;;;;;5013345;28;20033;-75
2023/05/15 08:10:10;;;;;;;5.88;3.67;;;;;;;;;;5029974;28;20041;-76
2023/05/15 08:12:36;;;;;;;6.47;3.75;;;;;;;;;;5013276;28;20040;-75
2023/05/15 08:15:02;;;;;;;8.85;4.35;;;;;;;;;;5029554;28;20037;-75
2023/05/15 08:17:28;;;;;;;11.05;3.72;;;;;;;;;;5026178;28;20044;-75
2023/05/15 08:19:54;;;;;;;10.50;3.88;;;;;;;;;;5026112;28;20079;-75
2023/05/15 08:22:20;;;;;;;10.40;3.80;;;;;;;;;;5019956;28;20037;-74
2023/05/15 08:24:46;;;;;;;8.88;3.30;;;;;;;;;;5023352;28;20049;-75
2023/05/15 08:27:12;;;;;;;7.38;3.40;;;;;;;;;;5029371;28;20120;-74
2023/05/15 08:29:39;;;;;;;7.93;3.47;;;;;;;;;;5011775;28;20041;-73
2023/05/15 08:32:06;;;;;;;12.50;3.67;;;;;;;;;;5026735;28;20591;-73
2023/05/15 08:34:31;;;;;;;5.60;3.45;;;;;;;;;;5020539;28;20046;-75
2023/05/15 08:36:58;;;;;;;7.82;3.53;;;;;;;;;;5028215;28;20032;-73
2023/05/15 08:39:24;;;;;;;6.47;3.25;;;;;;;;;;5025438;28;20096;-74
2023/05/15 08:42:09;;;;;;;8.18;3.70;;;;;;;;;;5010462;28;20423;-74
2023/05/15 08:44:35;;;;;;;5.28;3.80;;;;;;;;;;5025245;28;20033;-74
2023/05/15 08:47:02;;;;;;;6.97;3.70;;;;;;;;;;5029239;28;20065;-74
2023/05/15 08:49:46;;;;;;;6.32;3.20;;;;;;;;;;5049265;28;20032;-75
2023/05/15 08:52:12;;;;;;;6.80;3.90;;;;;;;;;;5050317;28;20047;-74
2023/05/15 08:54:39;;;;;;;5.65;3.50;;;;;;;;;;5050721;28;20455;-74
2023/05/15 08:57:06;;;;;;;4.93;3.22;;;;;;;;;;5050726;28;21007;-75
2023/05/15 08:59:33;;;;;;;8.55;3.95;;;;;;;;;;5050198;28;20025;-76
2023/05/15 09:01:59;;;;;;;7.65;3.63;;;;;;;;;;5050901;28;20112;-75
2023/05/15 09:04:25;;;;;;;7.07;4.00;;;;;;;;;;5052726;28;20468;-75
2023/05/15 09:06:51;;;;;;;7.22;3.35;;;;;;;;;;5039245;28;20040;-74
2023/05/15 09:09:17;;;;;;;4.82;3.20;;;;;;;;;;5049718;28;20296;-75
2023/05/15 09:11:46;;;;;;;10.20;3.20;;;;;;;;;;5037884;28;20025;-75
2023/05/15 09:14:12;;;;;;;9.15;3.20;;;;;;;;;;5042205;28;20025;-74
2023/05/15 09:16:39;;;;;;;6.80;2.90;;;;;;;;;;5047772;28;20491;-74
2023/05/15 09:19:06;;;;;;;8.38;3.35;;;;;;;;;;5043036;28;20044;-73
2023/05/15 09:21:32;;;;;;;8.25;3.00;;;;;;;;;;5041592;28;20122;-74
2023/05/15 09:24:23;;;;;;;6.20;3.40;;;;;;;;;;5041551;28;20035;-73
2023/05/15 09:27:06;;;;;;;9.05;3.75;;;;;;;;;;5044547;28;20419;-73
2023/05/15 09:29:36;;;;;;;5.40;2.70;;;;;;;;;;5050001;28;20039;-75
2023/05/15 09:32:08;;;;;;;5.22;3.00;;;;;;;;;;5050635;28;20037;-76
2023/05/15 09:34:36;;;;;;;7.57;3.20;;;;;;;;;;5049288;28;20033;-75
2023/05/15 09:37:05;;;;;;;5.25;3.40;;;;;;;;;;5046706;28;20493;-77
2023/05/15 09:39:31;;;;;;;5.38;3.38;;;;;;;;;;5037145;28;20057;-77
2023/05/15 09:42:07;;;;;;;4.10;2.67;;;;;;;;;;5055686;28;20021;-76
2023/05/15 09:44:33;;;;;;;9.80;3.58;;;;;;;;;;5065776;28;20032;-76
2023/05/15 09:47:01;;;;;;;8.93;3.30;;;;;;;;;;5049670;28;20017;-76
2023/05/15 09:49:28;;;;;;;7.97;3.67;;;;;;;;;;5050609;28;20024;-77
2023/05/15 09:51:57;;;;;;;5.80;2.97;;;;;;;;;;5049338;28;20410;-76
2023/05/15 09:54:26;;;;;;;4.53;2.83;;;;;;;;;;5044450;28;20029;-77
2023/05/15 09:56:52;;;;;;;3.72;2.85;;;;;;;;;;5043365;28;20082;-77
2023/05/15 09:59:20;;;;;;;6.22;2.97;;;;;;;;;;5045638;28;20114;-75
2023/05/15 10:01:48;;;;;;;10.23;3.53;;;;;;;;;;5049719;28;20090;-77
2023/05/15 10:04:14;;;;;;;9.27;3.38;;;;;;;;;;5053178;28;20029;-77
2023/05/15 10:06:45;;;;;;;6.03;2.75;;;;;;;;;;5052822;28;20024;-75
2023/05/15 10:09:12;;;;;;;6.30;2.72;;;;;;;;;;5053204;28;20029;-78
2023/05/15 10:11:42;;;;;;;10.13;3.50;;;;;;;;;;5053862;28;20104;-75
2023/05/15 10:14:11;;;;;;;9.98;3.50;;;;;;;;;;5052630;28;20067;-75
2023/05/15 10:16:39;;;;;;;5.63;2.72;;;;;;;;;;5052660;28;20048;-77
2023/05/15 10:19:07;;;;;;;6.30;3.45;;;;;;;;;;5054579;28;20075;-75
2023/05/15 10:21:35;;;;;;;11.02;6.43;;;;;;;;;;5052026;28;20045;-74
2023/05/15 10:24:02;;;;;;;14.15;9.60;;;;;;;;;;5045305;28;20028;-75
2023/05/15 10:26:38;;;;;;;5.80;3.60;;;;;;;;;;5047952;28;20025;-76
2023/05/15 10:29:06;;;;;;;5.22;2.65;;;;;;;;;;5043526;28;20075;-76
2023/05/15 10:31:34;;;;;;;7.88;3.10;;;;;;;;;;5063393;28;20446;-76
2023/05/15 10:34:03;;;;;;;5.97;2.70;;;;;;;;;;5051684;28;20036;-76
2023/05/15 10:36:30;;;;;;;7.15;2.70;;;;;;;;;;5050812;28;20040;-76
2023/05/15 10:38:58;;;;;;;5.93;3.08;;;;;;;;;;5052916;28;20063;-76
2023/05/15 10:41:26;;;;;;;6.90;3.13;;;;;;;;;;5046009;28;20028;-75
2023/05/15 10:43:52;;;;;;;8.95;3.30;;;;;;;;;;5039838;28;20056;-76
2023/05/15 10:46:19;;;;;;;6.10;3.20;;;;;;;;;;5049989;28;20108;-75
2023/05/15 10:52:32;;;;;;;10.45;3.25;;;;;;;;;;5047308;28;20060;-75
2023/05/15 10:54:59;;;;;;;6.80;3.40;;;;;;;;;;5049091;28;20115;-76
2023/05/15 11:01:28;;;;;;;11.93;3.25;;;;;;;;;;5046058;28;20071;-75
2023/05/15 11:04:04;;;;;;;6.93;2.88;;;;;;;;;;5043089;28;20029;-75
2023/05/15 11:06:31;;;;;;;5.78;3.42;;;;;;;;;;5053408;28;20052;-74
2023/05/15 11:09:35;;;;;;;6.00;2.92;;;;;;;;;;5052459;28;20516;-76
2023/05/15 11:12:12;;;;;;;6.18;3.28;;;;;;;;;;5036386;28;20107;-75
2023/05/15 11:14:41;;;;;;;5.93;2.88;;;;;;;;;;5064437;28;20041;-76
2023/05/15 11:17:11;;;;;;;6.47;2.80;;;;;;;;;;5052333;28;20459;-74
2023/05/15 11:19:47;;;;;;;4.35;2.75;;;;;;;;;;5052323;28;20033;-75
2023/05/15 11:22:13;;;;;;;8.48;3.45;;;;;;;;;;5052761;28;20041;-75
2023/05/15 11:24:57;;;;;;;11.63;3.10;;;;;;;;;;5031354;28;20026;-75
2023/05/15 11:27:27;;;;;;;7.60;3.20;;;;;;;;;;5052055;28;20126;-75
2023/05/15 11:30:10;;;;;;;5.60;3.35;;;;;;;;;;5051645;28;20111;-75
2023/05/15 11:32:57;;;;;;;7.15;2.80;;;;;;;;;;5051692;28;20621;-75
2023/05/15 11:35:25;;;;;;;4.15;3.08;;;;;;;;;;5053070;28;20025;-75
2023/05/15 11:37:56;;;;;;;5.55;3.22;;;;;;;;;;5052870;28;20025;-75
2023/05/15 11:40:46;;;;;;;6.75;2.70;;;;;;;;;;5053046;28;20060;-76
2023/05/15 11:43:25;;;;;;;6.53;3.40;;;;;;;;;;5046618;28;20114;-75
2023/05/15 11:46:11;;;;;;;6.65;3.10;;;;;;;;;;5052835;28;20438;-75
2023/05/15 11:48:42;;;;;;;4.32;2.50;;;;;;;;;;5059387;28;20041;-75
2023/05/15 11:51:30;;;;;;;7.38;3.17;;;;;;;;;;5053347;28;20556;-74
2023/05/15 11:53:57;;;;;;;10.50;3.03;;;;;;;;;;5051239;28;20067;-72
2023/05/15 11:56:24;;;;;;;9.77;3.03;;;;;;;;;;5052792;28;20493;-74
2023/05/15 11:58:53;;;;;;;5.97;3.35;;;;;;;;;;5051851;28;20355;-73
2023/05/15 12:01:19;;;;;;;7.05;3.13;;;;;;;;;;5052434;28;20028;-75
2023/05/15 12:03:50;;;;;;;7.07;3.60;;;;;;;;;;5051735;28;20032;-75
2023/05/15 12:06:16;;;;;;;10.20;3.22;;;;;;;;;;5051093;28;20443;-77
2023/05/15 12:08:42;;;;;;;5.95;3.13;;;;;;;;;;5052233;28;20032;-74
2023/05/15 12:11:09;;;;;;;8.85;3.35;;;;;;;;;;5052321;28;20029;-75
2023/05/15 12:13:35;;;;;;;6.00;3.08;;;;;;;;;;5051551;28;20021;-74
2023/05/15 12:16:02;;;;;;;4.65;3.10;;;;;;;;;;5051721;28;20078;-74
2023/05/15 12:18:30;;;;;;;6.05;2.88;;;;;;;;;;5052028;28;20017;-73
2023/05/15 12:20:56;;;;;;;7.80;3.35;;;;;;;;;;5051632;28;20107;-75
2023/05/15 12:23:24;;;;;;;7.85;3.47;;;;;;;;;;5052099;28;20024;-74
2023/05/15 12:25:56;;;;;;;7.85;3.40;;;;;;;;;;5052747;28;20071;-73
2023/05/15 12:28:22;;;;;;;7.85;3.60;;;;;;;;;;5048006;28;20055;-74
2023/05/15 12:30:48;;;;;;;6.28;3.22;;;;;;;;;;5052090;28;20032;-73
2023/05/15 12:33:14;;;;;;;6.55;3.20;;;;;;;;;;5042174;28;20028;-75
2023/05/15 12:35:42;;;;;;;8.25;3.33;;;;;;;;;;5058675;28;20452;-74
2023/05/15 12:38:12;;;;;;;6.88;2.78;;;;;;;;;;5052587;28;20032;-73
2023/05/15 12:40:38;;;;;;;51.10;25.02;;;;;;;;;;5051433;28;20029;-73
2023/05/15 12:43:05;;;;;;;12.77;6.90;;;;;;;;;;5051663;28;20360;-75
2023/05/15 12:45:34;;;;;;;10.55;3.42;;;;;;;;;;5051345;28;20037;-74
2023/05/15 12:47:59;;;;;;;8.80;3.08;;;;;;;;;;5043019;28;20029;-75
2023/05/15 12:50:29;;;;;;;6.93;3.10;;;;;;;;;;5051220;28;20036;-74
2023/05/15 12:53:00;;;;;;;6.97;3.17;;;;;;;;;;5051102;28;20024;-74
2023/05/15 12:55:31;;;;;;;9.23;3.20;;;;;;;;;;5051225;28;20414;-74
2023/05/15 12:58:03;;;;;;;7.03;3.50;;;;;;;;;;5051114;28;20090;-77
2023/05/15 13:00:30;;;;;;;6.22;3.42;;;;;;;;;;5051575;28;20044;-75
2023/05/15 13:02:57;;;;;;;11.95;3.40;;;;;;;;;;5050966;28;20029;-75
2023/05/15 13:05:27;;;;;;;6.13;2.88;;;;;;;;;;5044052;28;20021;-75
2023/05/15 13:07:52;;;;;;;7.35;3.17;;;;;;;;;;5050010;28;20024;-77
2023/05/15 13:10:23;;;;;;;8.23;2.83;;;;;;;;;;5051190;28;20028;-75
2023/05/15 13:12:51;;;;;;;6.63;3.03;;;;;;;;;;5051219;28;20051;-76
2023/05/15 13:15:34;;;;;;;8.93;3.40;;;;;;;;;;5041818;28;20451;-75
2023/05/15 13:18:06;;;;;;;4.95;3.25;;;;;;;;;;5042928;28;20025;-78
2023/05/15 13:20:38;;;;;;;7.63;3.85;;;;;;;;;;5050910;28;20041;-75
2023/05/15 13:23:05;;;;;;;7.65;3.15;;;;;;;;;;5037436;28;20059;-78
2023/05/15 13:25:31;;;;;;;5.55;2.90;;;;;;;;;;5050548;28;20021;-76
2023/05/15 13:27:59;;;;;;;5.90;3.42;;;;;;;;;;5051149;28;20068;-73
2023/05/15 13:30:25;;;;;;;8.68;2.83;;;;;;;;;;5051107;28;20147;-75
2023/05/15 13:32:51;;;;;;;5.15;2.85;;;;;;;;;;5050564;28;20568;-75
2023/05/15 13:35:17;;;;;;;5.75;3.05;;;;;;;;;;5051074;28;20063;-75
2023/05/15 13:37:43;;;;;;;7.10;3.00;;;;;;;;;;5053136;28;20082;-76
2023/05/15 13:40:10;;;;;;;5.60;2.92;;;;;;;;;;5054648;28;20445;-75
2023/05/15 13:42:37;;;;;;;8.70;3.15;;;;;;;;;;5055021;28;20059;-75
2023/05/15 13:45:04;;;;;;;8.10;2.55;;;;;;;;;;5054832;28;20478;-75
2023/05/15 13:47:30;;;;;;;5.38;2.40;;;;;;;;;;5054610;28;20283;-73
2023/05/15 13:49:56;;;;;;;5.18;2.70;;;;;;;;;;5054586;28;20578;-75
2023/05/15 13:52:22;;;;;;;6.90;2.92;;;;;;;;;;5054769;28;20072;-75
2023/05/15 13:54:48;;;;;;;5.32;2.60;;;;;;;;;;5054417;28;20061;-76
2023/05/15 13:57:14;;;;;;;5.72;2.60;;;;;;;;;;5055032;28;20394;-76
2023/05/15 13:59:40;;;;;;;4.88;3.00;;;;;;;;;;5054804;28;20451;-76
2023/05/15 14:02:05;;;;;;;7.93;2.97;;;;;;;;;;5054853;28;20033;-75
2023/05/15 14:04:31;;;;;;;6.55;2.88;;;;;;;;;;5055139;28;20023;-75
2023/05/15 14:06:57;;;;;;;5.75;2.40;;;;;;;;;;5054975;28;20035;-77
2023/05/15 14:09:22;;;;;;;6.38;2.60;;;;;;;;;;5055014;28;20021;-76
2023/05/15 14:11:48;;;;;;;4.70;2.50;;;;;;;;;;5034496;28;20037;-75
2023/05/15 14:14:13;;;;;;;4.05;2.60;;;;;;;;;;5053971;28;20112;-75
2023/05/15 14:16:40;;;;;;;4.43;2.50;;;;;;;;;;5054753;28;20064;-76
2023/05/15 14:19:06;;;;;;;4.97;2.58;;;;;;;;;;5054696;28;20483;-75
2023/05/15 14:21:32;;;;;;;5.95;2.70;;;;;;;;;;5054634;28;20086;-74
2023/05/15 14:23:57;;;;;;;3.88;2.70;;;;;;;;;;5054413;28;20083;-75
2023/05/15 14:26:23;;;;;;;7.75;2.58;;;;;;;;;;5037856;28;20495;-76
2023/05/15 14:28:49;;;;;;;5.43;2.80;;;;;;;;;;5052558;28;20028;-74
2023/05/15 14:31:15;;;;;;;3.80;2.40;;;;;;;;;;5053691;28;20179;-75
2023/05/15 14:33:40;;;;;;;6.20;2.78;;;;;;;;;;5054605;28;20108;-75
2023/05/15 14:36:06;;;;;;;4.93;3.00;;;;;;;;;;5054126;28;20036;-73
2023/05/15 14:38:32;;;;;;;4.68;2.63;;;;;;;;;;5053642;28;20032;-74
2023/05/15 14:40:58;;;;;;;4.82;2.65;;;;;;;;;;5053793;28;20041;-74
2023/05/15 14:43:24;;;;;;;7.55;2.70;;;;;;;;;;5052340;28;20095;-73
2023/05/15 14:45:50;;;;;;;7.43;2.75;;;;;;;;;;5052314;28;20029;-76
2023/05/15 14:48:16;;;;;;;8.23;2.78;;;;;;;;;;5052971;28;20491;-75